createdAt,value
2022-10-20T00:02:01.623Z,60.57
2022-10-20T00:04:29.877Z,60.82
2022-10-20T00:06:57.522Z,61.03
2022-10-20T00:09:25.332Z,61.28
2022-10-20T00:11:53.071Z,61.55
2022-10-20T00:14:21.213Z,61.56
2022-10-20T00:16:49.018Z,61.32
2022-10-20T00:19:16.831Z,61.56
2022-10-20T00:21:44.529Z,61.14
2022-10-20T00:24:12.218Z,61.23
2022-10-20T00:26:40.020Z,61.55
2022-10-20T00:29:07.915Z,61.91
2022-10-20T00:31:35.593Z,61.34
2022-10-20T00:34:03.366Z,61.66
2022-10-20T00:36:31.104Z,61.27
2022-10-20T00:39:03.561Z,60.98
2022-10-20T00:41:32.016Z,60.93
2022-10-20T00:44:42.674Z,61.34
2022-10-20T00:47:16.922Z,61.67
2022-10-20T00:49:44.683Z,61.40
2022-10-20T00:52:12.541Z,61.80
2022-10-20T00:54:40.323Z,62.46
2022-10-20T00:57:08.061Z,61.83
2022-10-20T00:59:36.344Z,61.84
2022-10-20T01:02:04.142Z,62.21
2022-10-20T01:04:32.056Z,62.17
2022-10-20T01:06:59.951Z,62.23
2022-10-20T01:09:27.703Z,61.59
2022-10-20T01:12:16.978Z,61.66
2022-10-20T01:15:16.717Z,61.69
2022-10-20T01:18:18.813Z,61.44
2022-10-20T01:21:11.804Z,61.51
2022-10-20T01:24:23.824Z,62.82
2022-10-20T01:27:43.280Z,62.72
2022-10-20T01:30:19.217Z,62.02
2022-10-20T01:33:33.213Z,62.16
2022-10-20T01:36:13.777Z,62.42
2022-10-20T01:38:54.072Z,62.18
2022-10-20T01:41:37.657Z,62.02
2022-10-20T01:44:08.921Z,61.93
2022-10-20T01:46:37.870Z,62.09
2022-10-20T01:49:05.634Z,61.88
2022-10-20T01:51:33.464Z,61.72
2022-10-20T01:54:01.371Z,61.64
2022-10-20T01:57:02.298Z,61.81
2022-10-20T01:59:48.094Z,61.65
2022-10-20T02:02:42.249Z,61.71
2022-10-20T02:05:16.922Z,61.58
2022-10-20T02:07:44.673Z,61.27
2022-10-20T02:10:22.832Z,61.37
2022-10-20T02:12:58.578Z,61.10
2022-10-20T02:15:27.747Z,61.10
2022-10-20T02:18:00.222Z,60.90
2022-10-20T02:20:28.821Z,61.11
2022-10-20T02:22:58.073Z,60.84
2022-10-20T02:25:26.347Z,60.93
2022-10-20T02:27:54.149Z,60.76
2022-10-20T02:30:22.281Z,60.94
2022-10-20T02:32:52.704Z,61.50
2022-10-20T02:35:23.946Z,61.16
2022-10-20T02:37:52.433Z,61.77
2022-10-20T02:40:22.358Z,61.56
2022-10-20T02:42:50.319Z,61.13
2022-10-20T02:45:18.061Z,60.73
2022-10-20T02:47:45.858Z,60.46
2022-10-20T02:50:13.730Z,60.47
2022-10-20T02:52:42.494Z,60.49
2022-10-20T02:55:10.234Z,60.42
2022-10-20T02:57:38.593Z,60.40
2022-10-20T03:00:07.546Z,60.10
2022-10-20T03:02:35.395Z,60.01
2022-10-20T03:05:03.476Z,60.12
2022-10-20T03:07:31.326Z,60.52
2022-10-20T03:09:59.021Z,60.68
2022-10-20T03:12:28.946Z,60.48
2022-10-20T03:14:59.335Z,60.74
2022-10-20T03:17:27.061Z,60.69
2022-10-20T03:19:54.770Z,60.46
2022-10-20T03:22:22.678Z,60.43
2022-10-20T03:24:50.460Z,60.20
2022-10-20T03:27:18.186Z,60.23
2022-10-20T03:29:45.985Z,60.26
2022-10-20T03:32:13.872Z,60.37
2022-10-20T03:34:41.634Z,60.18
2022-10-20T03:37:09.355Z,60.02
2022-10-20T03:39:37.164Z,59.56
2022-10-20T03:42:05.033Z,58.97
2022-10-20T03:44:32.707Z,59.48
2022-10-20T03:47:00.734Z,62.42
2022-10-20T03:49:28.668Z,63.57
2022-10-20T03:51:56.396Z,62.91
2022-10-20T03:54:24.095Z,62.16
2022-10-20T03:56:51.833Z,61.13
2022-10-20T03:59:19.676Z,60.65
2022-10-20T04:01:47.470Z,60.60
2022-10-20T04:04:15.473Z,60.46
2022-10-20T04:06:43.173Z,61.63
2022-10-20T04:09:10.977Z,57.14
2022-10-20T04:11:39.006Z,54.84
2022-10-20T04:14:06.717Z,57.15
2022-10-20T04:16:34.573Z,59.76
2022-10-20T04:19:02.429Z,63.72
2022-10-20T04:21:30.555Z,63.89
2022-10-20T04:23:58.356Z,61.83
2022-10-20T04:26:26.118Z,61.35
2022-10-20T04:28:57.283Z,61.15
2022-10-20T04:31:25.104Z,60.69
2022-10-20T04:33:52.970Z,60.12
2022-10-20T04:36:20.715Z,59.70
2022-10-20T04:38:48.510Z,58.96
2022-10-20T04:41:16.236Z,57.21
2022-10-20T04:43:43.972Z,58.37
2022-10-20T04:46:11.891Z,60.24
2022-10-20T04:48:42.638Z,63.46
2022-10-20T04:51:13.034Z,65.63
2022-10-20T04:53:40.827Z,65.26
2022-10-20T04:56:11.471Z,64.83
2022-10-20T04:58:39.282Z,63.83
2022-10-20T05:01:08.607Z,62.50
2022-10-20T05:03:36.782Z,61.61
2022-10-20T05:06:09.416Z,60.80
2022-10-20T05:08:37.148Z,60.09
2022-10-20T05:11:05.206Z,60.21
2022-10-20T05:13:32.953Z,60.23
2022-10-20T05:16:00.650Z,59.83
2022-10-20T05:18:28.628Z,58.28
2022-10-20T05:21:08.173Z,58.94
2022-10-20T05:23:38.449Z,59.94
2022-10-20T05:26:10.709Z,63.87
2022-10-20T05:28:39.088Z,64.47
2022-10-20T05:31:07.939Z,63.29
2022-10-20T05:33:36.151Z,62.42
2022-10-20T05:36:10.118Z,61.88
2022-10-20T05:38:38.338Z,61.29
2022-10-20T05:41:14.036Z,60.53
2022-10-20T05:43:41.847Z,60.14
2022-10-20T05:46:09.815Z,59.90
2022-10-20T05:48:42.816Z,59.49
2022-10-20T05:51:19.838Z,57.74
2022-10-20T05:53:47.712Z,58.79
2022-10-20T05:56:18.474Z,60.21
2022-10-20T05:58:47.473Z,64.23
2022-10-20T06:01:26.795Z,65.11
2022-10-20T06:03:59.276Z,62.39
2022-10-20T06:06:29.255Z,60.08
2022-10-20T06:08:58.891Z,59.72
2022-10-20T06:11:27.196Z,59.80
2022-10-20T06:13:55.894Z,59.77
2022-10-20T06:16:25.236Z,58.95
2022-10-20T06:18:53.586Z,59.01
2022-10-20T06:21:26.725Z,60.50
2022-10-20T06:23:54.584Z,59.75
2022-10-20T06:26:24.253Z,64.68
2022-10-20T06:28:56.001Z,64.73
2022-10-20T06:31:31.211Z,62.93
2022-10-20T06:33:59.072Z,61.24
2022-10-20T06:36:27.339Z,58.51
2022-10-20T06:38:58.687Z,55.63
2022-10-20T06:41:28.122Z,55.82
2022-10-20T06:43:59.247Z,56.68
2022-10-20T06:46:29.400Z,61.88
2022-10-20T06:48:59.667Z,60.39
2022-10-20T06:51:27.556Z,54.55
2022-10-20T06:53:55.606Z,53.08
2022-10-20T06:56:25.112Z,52.81
2022-10-20T06:58:54.129Z,55.60
2022-10-20T07:01:27.168Z,59.04
2022-10-20T07:04:01.142Z,56.05
2022-10-20T07:06:35.104Z,60.25
2022-10-20T07:09:04.489Z,57.52
2022-10-20T07:11:32.382Z,56.72
2022-10-20T07:14:00.871Z,60.74
2022-10-20T07:16:30.768Z,62.36
2022-10-20T07:18:58.855Z,58.75
2022-10-20T07:21:32.361Z,55.91
2022-10-20T07:24:05.270Z,55.38
2022-10-20T07:26:38.783Z,57.20
2022-10-20T07:29:06.564Z,58.39
2022-10-20T07:31:37.541Z,60.48
2022-10-20T07:34:12.897Z,60.81
2022-10-20T07:36:43.400Z,62.01
2022-10-20T07:39:12.722Z,60.67
2022-10-20T07:41:40.588Z,58.71
2022-10-20T07:44:08.392Z,57.30
2022-10-20T07:46:36.540Z,58.33
2022-10-20T07:49:38.120Z,59.02
2022-10-20T07:51:52.340Z,59.94
2022-10-20T07:54:20.158Z,60.02
2022-10-20T07:56:48.037Z,61.26
2022-10-20T07:59:15.841Z,63.56
2022-10-20T08:01:44.310Z,61.50
2022-10-20T08:04:12.436Z,58.81
2022-10-20T08:06:40.264Z,55.59
2022-10-20T08:09:08.534Z,55.55
2022-10-20T08:11:36.363Z,56.46
2022-10-20T08:14:04.297Z,59.48
2022-10-20T08:16:43.846Z,60.52
2022-10-20T08:19:28.051Z,60.98
2022-10-20T08:21:55.776Z,61.17
2022-10-20T08:24:23.636Z,60.69
2022-10-20T08:26:51.356Z,63.87
2022-10-20T08:29:19.097Z,63.23
2022-10-20T08:31:46.824Z,59.20
2022-10-20T08:34:14.617Z,55.31
2022-10-20T08:36:42.384Z,55.47
2022-10-20T08:39:10.297Z,56.08
2022-10-20T08:42:06.433Z,57.41
2022-10-20T08:44:33.230Z,57.74
2022-10-20T08:47:02.166Z,58.89
2022-10-20T08:49:33.432Z,58.96
2022-10-20T08:52:01.245Z,59.53
2022-10-20T08:54:29.394Z,60.53
2022-10-20T08:56:57.229Z,59.82
2022-10-20T08:59:39.101Z,59.49
2022-10-20T09:02:15.472Z,60.00
2022-10-20T09:04:51.124Z,60.52
2022-10-20T09:07:42.293Z,60.31
2022-10-20T09:10:16.128Z,62.43
2022-10-20T09:12:45.979Z,62.21
2022-10-20T09:15:15.886Z,58.02
2022-10-20T09:17:47.132Z,55.47
2022-10-20T09:20:44.531Z,54.68
2022-10-20T09:23:35.314Z,56.31
2022-10-20T09:26:03.359Z,56.14
2022-10-20T09:28:38.399Z,58.37
2022-10-20T09:31:34.408Z,57.26
2022-10-20T09:34:02.357Z,57.29
2022-10-20T09:36:35.066Z,58.06
2022-10-20T09:39:02.873Z,58.77
2022-10-20T09:41:31.545Z,59.66
2022-10-20T09:44:02.721Z,59.81
2022-10-20T09:46:34.581Z,60.32
2022-10-20T09:49:02.388Z,59.52
2022-10-20T09:51:30.230Z,58.91
2022-10-20T09:54:03.660Z,58.66
2022-10-20T09:56:36.243Z,58.43
2022-10-20T09:59:18.440Z,57.97
2022-10-20T10:02:03.511Z,58.43
2022-10-20T10:04:39.533Z,58.50
2022-10-20T10:07:27.589Z,58.85
2022-10-20T10:10:08.454Z,59.14
2022-10-20T10:12:36.883Z,58.50
2022-10-20T10:15:25.268Z,57.56
2022-10-20T10:17:53.130Z,57.98
2022-10-20T10:20:31.204Z,56.97
2022-10-20T10:23:23.683Z,57.08
2022-10-20T10:25:52.465Z,57.13
2022-10-20T10:31:16.665Z,56.70
2022-10-20T10:33:44.529Z,56.73
2022-10-20T10:36:21.372Z,56.76
2022-10-20T10:38:49.163Z,56.99
2022-10-20T10:41:25.330Z,55.88
2022-10-20T10:44:00.646Z,54.95
2022-10-20T10:46:41.380Z,54.41
2022-10-20T10:49:31.730Z,55.23
2022-10-20T10:52:34.008Z,55.52
2022-10-20T10:55:43.785Z,54.79
2022-10-20T10:58:19.207Z,54.98
2022-10-20T11:00:56.593Z,55.99
2022-10-20T11:03:46.938Z,54.60
2022-10-20T11:06:32.924Z,54.66
2022-10-20T11:09:06.135Z,54.24
2022-10-20T11:12:08.325Z,53.77
2022-10-20T11:14:47.147Z,53.03
2022-10-20T11:17:52.697Z,52.73
2022-10-20T11:20:31.314Z,52.74
2022-10-20T11:23:18.945Z,52.55
2022-10-20T11:25:59.779Z,53.35
2022-10-20T11:28:34.977Z,52.83
2022-10-20T11:31:02.763Z,51.64
2022-10-20T11:33:43.923Z,51.40
2022-10-20T11:36:19.375Z,52.49
2022-10-20T11:38:52.699Z,52.63
2022-10-20T11:41:49.646Z,51.80
2022-10-20T11:44:42.631Z,51.93
2022-10-20T11:47:13.876Z,51.87
2022-10-20T11:49:41.668Z,52.55
2022-10-20T11:52:40.445Z,53.32
2022-10-20T11:55:32.361Z,52.33
2022-10-20T11:58:20.806Z,52.62
2022-10-20T12:00:57.605Z,52.19
2022-10-20T12:03:46.033Z,50.75
2022-10-20T12:07:09.407Z,49.32
2022-10-20T12:10:12.591Z,49.33
2022-10-20T12:12:57.561Z,49.30
2022-10-20T12:15:27.945Z,49.63
2022-10-20T12:17:59.945Z,46.56
2022-10-20T12:20:27.715Z,46.77
2022-10-20T12:22:59.134Z,47.15
2022-10-20T12:25:27.127Z,48.01
2022-10-20T12:28:20.285Z,48.57
2022-10-20T12:30:59.382Z,49.24
2022-10-20T12:33:41.515Z,48.87
2022-10-20T12:36:18.602Z,49.20
2022-10-20T12:38:54.263Z,48.75
2022-10-20T12:41:27.256Z,48.51
2022-10-20T12:43:58.649Z,48.58
2022-10-20T12:46:28.096Z,48.46
2022-10-20T12:49:00.334Z,47.63
2022-10-20T12:51:46.703Z,47.86
2022-10-20T12:54:32.128Z,48.43
2022-10-20T12:57:03.988Z,48.78
2022-10-20T12:59:38.313Z,47.94
2022-10-20T13:02:09.085Z,48.48
2022-10-20T13:05:00.607Z,48.94
2022-10-20T13:07:46.588Z,49.57
2022-10-20T13:10:27.372Z,49.32
2022-10-20T13:13:01.283Z,49.73
2022-10-20T13:15:31.172Z,49.52
2022-10-20T13:18:01.612Z,49.20
2022-10-20T13:20:48.865Z,49.64
2022-10-20T13:23:29.491Z,50.19
2022-10-20T13:26:14.436Z,50.53
2022-10-20T13:28:47.981Z,50.72
2022-10-20T13:31:52.036Z,50.67
2022-10-20T13:34:44.874Z,51.18
2022-10-20T13:37:52.942Z,50.79
2022-10-20T13:40:30.967Z,50.29
2022-10-20T13:43:20.631Z,49.64
2022-10-20T13:45:57.997Z,49.15
2022-10-20T13:48:41.998Z,49.43
2022-10-20T13:51:25.608Z,50.18
2022-10-20T13:53:56.452Z,50.65
2022-10-20T13:56:35.662Z,51.15
2022-10-20T13:59:24.623Z,51.39
2022-10-20T14:02:03.866Z,51.65
2022-10-20T14:04:34.085Z,51.47
2022-10-20T14:07:04.274Z,52.54
2022-10-20T14:09:32.086Z,54.02
2022-10-20T14:12:05.910Z,53.15
2022-10-20T14:14:34.108Z,53.03
2022-10-20T14:17:05.182Z,53.60
2022-10-20T14:19:33.693Z,54.07
2022-10-20T14:22:16.230Z,54.25
2022-10-20T14:24:46.188Z,56.31
2022-10-20T14:27:36.294Z,56.36
2022-10-20T14:30:05.969Z,55.47
2022-10-20T14:32:39.607Z,55.32
2022-10-20T14:35:41.368Z,55.35
2022-10-20T14:38:21.496Z,55.74
2022-10-20T14:40:57.234Z,55.74
2022-10-20T14:43:46.303Z,56.21
2022-10-20T14:46:37.685Z,56.10
2022-10-20T14:49:37.927Z,56.25
2022-10-20T14:52:21.513Z,56.43
2022-10-20T14:54:51.146Z,56.55
2022-10-20T14:57:25.053Z,56.90
2022-10-20T15:00:04.507Z,57.26
2022-10-20T15:02:41.567Z,58.11
2022-10-20T15:05:34.211Z,58.48
2022-10-20T15:08:24.372Z,58.75
2022-10-20T15:10:52.455Z,58.86
2022-10-20T15:13:29.009Z,58.91
2022-10-20T15:15:58.768Z,59.35
2022-10-20T15:18:27.094Z,60.02
2022-10-20T15:20:55.347Z,60.55
2022-10-20T15:23:26.032Z,61.61
2022-10-20T15:26:13.610Z,61.06
2022-10-20T15:28:45.752Z,61.07
2022-10-20T15:31:13.548Z,61.47
2022-10-20T15:33:41.719Z,61.25
2022-10-20T15:36:20.434Z,61.65
2022-10-20T15:38:49.283Z,61.67
2022-10-20T15:41:19.980Z,61.67
2022-10-20T15:43:47.909Z,63.03
2022-10-20T15:46:16.352Z,70.10
2022-10-20T15:48:44.247Z,73.33
2022-10-20T15:51:27.556Z,73.93
2022-10-20T15:53:55.618Z,68.93
2022-10-20T15:56:23.506Z,63.87
2022-10-20T15:58:51.481Z,60.89
2022-10-20T16:01:20.381Z,57.65
2022-10-20T16:03:49.728Z,54.71
2022-10-20T16:06:18.497Z,54.14
2022-10-20T16:08:48.331Z,54.27
2022-10-20T16:11:17.334Z,54.31
2022-10-20T16:13:45.406Z,54.53
2022-10-20T16:16:16.256Z,54.84
2022-10-20T16:18:44.033Z,56.92
2022-10-20T16:21:11.915Z,60.10
2022-10-20T16:23:42.321Z,61.06
2022-10-20T16:26:13.635Z,60.47
2022-10-20T16:28:41.547Z,63.50
2022-10-20T16:31:14.374Z,68.83
2022-10-20T16:33:42.311Z,70.91
2022-10-20T16:36:11.766Z,72.29
2022-10-20T16:38:40.461Z,70.71
2022-10-20T16:41:11.455Z,65.06
2022-10-20T16:43:40.870Z,61.66
2022-10-20T16:46:09.211Z,57.58
2022-10-20T16:48:39.004Z,51.62
2022-10-20T16:51:10.052Z,52.00
2022-10-20T16:53:38.035Z,53.60
2022-10-20T16:56:06.661Z,54.62
2022-10-20T16:58:34.675Z,55.22
2022-10-20T17:01:08.897Z,55.23
2022-10-20T17:03:37.934Z,54.94
2022-10-20T17:06:07.129Z,55.87
2022-10-20T17:08:36.073Z,56.21
2022-10-20T17:11:06.758Z,57.60
2022-10-20T17:13:35.485Z,61.40
2022-10-20T17:16:12.412Z,63.24
2022-10-20T17:18:40.413Z,66.57
2022-10-20T17:21:10.231Z,68.92
2022-10-20T17:23:42.506Z,68.03
2022-10-20T17:26:16.843Z,67.49
2022-10-20T17:28:44.753Z,65.25
2022-10-20T17:31:14.370Z,62.29
2022-10-20T17:33:42.733Z,60.21
2022-10-20T17:36:12.502Z,57.71
2022-10-20T17:38:41.738Z,55.20
2022-10-20T17:41:14.944Z,55.31
2022-10-20T17:43:43.059Z,54.31
2022-10-20T17:46:13.574Z,56.35
2022-10-20T17:48:44.062Z,59.77
2022-10-20T17:51:15.675Z,61.62
2022-10-20T17:53:48.187Z,63.08
2022-10-20T17:56:17.243Z,67.66
2022-10-20T17:58:46.861Z,67.36
2022-10-20T18:01:48.527Z,66.72
2022-10-20T18:04:17.030Z,65.77
2022-10-20T18:06:45.621Z,64.56
2022-10-20T18:09:16.768Z,63.68
2022-10-20T18:11:48.235Z,60.47
2022-10-20T18:14:17.180Z,59.84
2022-10-20T18:16:45.469Z,58.98
2022-10-20T18:19:16.308Z,55.03
2022-10-20T18:21:44.185Z,55.10
2022-10-20T18:24:13.606Z,54.92
2022-10-20T18:26:41.947Z,56.56
2022-10-20T18:29:10.531Z,59.14
2022-10-20T18:31:40.138Z,61.30
2022-10-20T18:34:11.137Z,61.96
2022-10-20T18:36:42.071Z,66.46
2022-10-20T18:39:14.061Z,69.35
2022-10-20T18:41:43.261Z,66.18
2022-10-20T18:44:14.235Z,65.95
2022-10-20T18:46:42.526Z,64.34
2022-10-20T18:49:13.012Z,62.26
2022-10-20T18:51:41.069Z,59.95
2022-10-20T18:54:09.139Z,57.99
2022-10-20T18:56:37.082Z,55.59
2022-10-20T18:59:08.019Z,55.47
2022-10-20T19:01:38.194Z,58.23
2022-10-20T19:04:06.901Z,60.21
2022-10-20T19:06:37.521Z,61.11
2022-10-20T19:09:08.526Z,61.26
2022-10-20T19:11:37.860Z,65.73
2022-10-20T19:14:06.937Z,67.32
2022-10-20T19:16:36.784Z,66.11
2022-10-20T19:19:06.196Z,64.51
2022-10-20T19:21:34.258Z,62.55
2022-10-20T19:24:17.134Z,60.76
2022-10-20T19:26:57.465Z,61.46
2022-10-20T19:29:35.839Z,59.24
2022-10-20T19:32:04.665Z,55.37
2022-10-20T19:34:38.254Z,53.28
2022-10-20T19:37:06.772Z,53.28
2022-10-20T19:39:37.884Z,54.57
2022-10-20T19:42:06.302Z,58.10
2022-10-20T19:44:34.238Z,57.12
2022-10-20T19:47:02.138Z,59.87
2022-10-20T19:49:30.079Z,63.71
2022-10-20T19:51:57.871Z,68.21
2022-10-20T19:54:25.769Z,68.14
2022-10-20T19:56:53.808Z,66.36
2022-10-20T19:59:21.702Z,65.97
2022-10-20T20:01:50.041Z,65.16
2022-10-20T20:04:18.509Z,62.87
2022-10-20T20:06:46.341Z,60.32
2022-10-20T20:09:15.905Z,59.74
2022-10-20T20:11:44.163Z,56.32
2022-10-20T20:14:18.783Z,54.24
2022-10-20T20:16:47.347Z,54.58
2022-10-20T20:19:16.681Z,53.86
2022-10-20T20:21:44.721Z,54.48
2022-10-20T20:24:12.961Z,57.20
2022-10-20T20:26:40.876Z,58.37
2022-10-20T20:29:09.705Z,57.04
2022-10-20T20:31:37.455Z,57.09
2022-10-20T20:34:05.288Z,60.87
2022-10-20T20:36:33.080Z,64.72
2022-10-20T20:39:01.319Z,69.05
2022-10-20T20:41:31.263Z,68.51
2022-10-20T20:44:00.986Z,67.87
2022-10-20T20:46:31.182Z,66.36
2022-10-20T20:49:01.184Z,65.00
2022-10-20T20:51:29.166Z,61.80
2022-10-20T20:53:57.075Z,59.63
2022-10-20T20:56:27.017Z,56.18
2022-10-20T20:58:55.648Z,54.28
2022-10-20T21:01:27.630Z,53.72
2022-10-20T21:03:57.687Z,55.85
2022-10-20T21:06:33.219Z,57.38
2022-10-20T21:09:07.796Z,56.66
2022-10-20T21:11:35.849Z,58.93
2022-10-20T21:14:04.019Z,57.24
2022-10-20T21:16:34.199Z,61.39
2022-10-20T21:19:10.829Z,68.04
2022-10-20T21:21:44.578Z,71.34
2022-10-20T21:24:12.904Z,70.74
2022-10-20T21:26:40.761Z,67.30
2022-10-20T21:29:08.574Z,63.46
2022-10-20T21:31:36.596Z,60.24
2022-10-20T21:34:04.980Z,56.98
2022-10-20T21:36:34.862Z,54.91
2022-10-20T21:39:05.451Z,54.64
2022-10-20T21:41:35.107Z,55.24
2022-10-20T21:44:04.447Z,55.96
2022-10-20T21:46:42.062Z,57.55
2022-10-20T21:49:12.454Z,57.26
2022-10-20T21:51:49.983Z,58.01
2022-10-20T21:54:28.593Z,63.23
2022-10-20T21:56:56.648Z,68.57
2022-10-20T21:59:29.221Z,70.29
2022-10-20T22:01:59.503Z,66.83
2022-10-20T22:04:28.648Z,65.26
2022-10-20T22:06:56.773Z,63.05
2022-10-20T22:09:24.665Z,60.91
2022-10-20T22:11:56.852Z,60.33
2022-10-20T22:14:24.621Z,60.68
2022-10-20T22:16:52.446Z,60.61
2022-10-20T22:19:21.922Z,58.21
2022-10-20T22:21:50.914Z,54.39
2022-10-20T22:24:19.232Z,53.18
2022-10-20T22:26:48.356Z,53.73
2022-10-20T22:29:16.937Z,57.91
2022-10-20T22:31:44.713Z,57.63
2022-10-20T22:34:12.881Z,61.70
2022-10-20T22:36:40.937Z,63.77
2022-10-20T22:39:08.982Z,67.70
2022-10-20T22:41:36.830Z,66.58
2022-10-20T22:44:05.596Z,63.37
2022-10-20T22:46:33.638Z,63.50
2022-10-20T22:49:01.450Z,59.97
2022-10-20T22:51:29.269Z,56.59
2022-10-20T22:53:57.459Z,55.12
2022-10-20T22:56:25.550Z,55.16
2022-10-20T22:58:54.823Z,55.76
2022-10-20T23:01:23.109Z,55.67
2022-10-20T23:03:51.710Z,55.60
2022-10-20T23:06:22.889Z,59.69
2022-10-20T23:08:53.013Z,60.25
2022-10-20T23:11:21.017Z,60.37
2022-10-20T23:13:50.041Z,60.36
2022-10-20T23:16:18.071Z,64.30
2022-10-20T23:18:45.948Z,67.14
2022-10-20T23:21:14.176Z,68.08
2022-10-20T23:23:42.124Z,66.23
2022-10-20T23:26:10.607Z,64.97
2022-10-20T23:28:38.577Z,65.19
2022-10-20T23:31:13.690Z,61.64
2022-10-20T23:33:42.371Z,59.36
2022-10-20T23:36:11.051Z,55.56
2022-10-20T23:38:38.864Z,55.14
2022-10-20T23:41:06.915Z,55.78
2022-10-20T23:46:07.449Z,55.64
2022-10-20T23:48:35.627Z,55.70
2022-10-20T23:51:03.839Z,55.73
2022-10-20T23:53:31.602Z,57.02
2022-10-20T23:55:59.457Z,57.54
2022-10-20T23:58:27.287Z,59.60
